Time;durP1;ratioP1;P1;durP2;ratioP2;P2;SDS_P1;SDS_P2;PMS_P1;PMS_P2;Temp;Humidity;BMP_temperature;BMP_pressure;BME280_temperature;BME280_humidity;BME280_pressure;Samples;Min_cycle;Max_cycle;Signal;HPM_P1;HPM_P2
2021/03/18 00:01:47;;;;;;;19.70;12.88;;;103.10;2227.20;;;;;;5007580;28;20030;-68
2021/03/18 00:04:16;;;;;;;20.63;13.27;;;103.10;2227.20;;;;;;5008788;28;20029;-68
2021/03/18 00:06:44;;;;;;;21.25;14.27;;;103.10;2227.20;;;;;;5006911;28;20551;-68
2021/03/18 00:09:13;;;;;;;21.83;14.93;;;103.10;2227.20;;;;;;5009327;28;20022;-68
2021/03/18 00:11:41;;;;;;;27.85;19.10;;;103.10;2227.20;;;;;;5007019;28;20026;-68
2021/03/18 00:14:09;;;;;;;41.03;28.92;;;103.10;2227.20;;;;;;5009603;28;20018;-68
2021/03/18 00:16:35;;;;;;;40.05;27.85;;;103.10;2227.20;;;;;;5007861;28;20025;-69
2021/03/18 00:19:01;;;;;;;35.97;23.63;;;103.00;2227.20;;;;;;5009335;28;20075;-69
2021/03/18 00:21:26;;;;;;;27.70;18.63;;;103.00;2227.20;;;;;;5005164;28;20117;-69
2021/03/18 00:23:53;;;;;;;27.08;16.85;;;103.00;2227.20;;;;;;5011121;28;20205;-69
2021/03/18 00:26:27;;;;;;;22.83;14.45;;;103.00;2227.20;;;;;;5001393;28;20038;-69
2021/03/18 00:28:53;;;;;;;20.25;13.18;;;103.00;2227.20;;;;;;4991595;28;20428;-69
2021/03/18 00:31:23;;;;;;;20.02;12.63;;;103.00;2227.20;;;;;;4991020;28;20034;-69
2021/03/18 00:33:50;;;;;;;21.10;13.48;;;103.00;2227.20;;;;;;4992402;28;20514;-69
2021/03/18 00:36:16;;;;;;;20.50;12.65;;;103.00;2227.20;;;;;;4992859;28;20035;-70
2021/03/18 00:38:42;;;;;;;22.25;13.60;;;103.00;2227.20;;;;;;4992024;28;20084;-68
2021/03/18 00:41:09;;;;;;;21.15;13.40;;;103.00;2227.20;;;;;;4993046;28;20043;-68
2021/03/18 00:43:37;;;;;;;19.83;12.73;;;103.00;2227.20;;;;;;4991220;28;20100;-70
2021/03/18 00:46:04;;;;;;;20.42;12.98;;;103.10;2227.20;;;;;;4991929;28;20468;-69
2021/03/18 00:48:32;;;;;;;21.92;13.65;;;103.10;2227.20;;;;;;4994455;28;20448;-72
2021/03/18 00:51:00;;;;;;;20.83;12.88;;;103.10;2227.20;;;;;;4991813;28;20429;-72
2021/03/18 00:53:40;;;;;;;23.38;13.48;;;103.10;2227.20;;;;;;4995181;28;20052;-75
2021/03/18 00:56:12;;;;;;;20.40;13.30;;;103.20;2227.20;;;;;;4996540;28;20014;-68
2021/03/18 00:58:38;;;;;;;21.83;13.50;;;103.20;2227.20;;;;;;4991280;28;20078;-69
2021/03/18 01:01:05;;;;;;;21.50;13.23;;;103.10;2227.20;;;;;;4992140;28;20491;-69
2021/03/18 01:03:33;;;;;;;26.60;17.38;;;103.20;2227.20;;;;;;4990462;28;20479;-70
2021/03/18 01:06:01;;;;;;;38.97;22.98;;;103.20;2227.20;;;;;;4990691;28;20018;-69
2021/03/18 01:08:30;;;;;;;31.63;18.73;;;103.20;2227.20;;;;;;4992615;28;20015;-70
2021/03/18 01:11:08;;;;;;;37.83;23.85;;;103.20;2227.20;;;;;;4992154;28;20030;-70
2021/03/18 01:13:35;;;;;;;36.55;22.42;;;103.20;2227.20;;;;;;4991492;28;20557;-70
2021/03/18 01:16:05;;;;;;;25.63;16.52;;;103.20;2227.20;;;;;;4991482;28;20015;-69
2021/03/18 01:18:43;;;;;;;47.88;25.98;;;103.20;2227.20;;;;;;4990349;28;20112;-69
2021/03/18 01:21:10;;;;;;;47.83;26.10;;;103.30;2227.20;;;;;;4990447;28;20054;-70
2021/03/18 01:23:36;;;;;;;39.72;22.77;;;103.30;2227.20;;;;;;4992915;28;20077;-69
2021/03/18 01:26:04;;;;;;;51.65;28.75;;;103.30;2227.20;;;;;;4991357;28;20026;-70
2021/03/18 01:28:30;;;;;;;50.05;28.65;;;103.30;2227.20;;;;;;4990639;28;20471;-70
2021/03/18 01:30:56;;;;;;;47.25;27.38;;;103.30;2227.20;;;;;;4990577;28;20026;-78
2021/03/18 01:33:22;;;;;;;37.28;22.30;;;103.30;2227.20;;;;;;5003036;28;20026;-71
2021/03/18 01:35:48;;;;;;;35.53;20.20;;;103.30;2227.20;;;;;;5010839;28;20032;-70
2021/03/18 01:38:14;;;;;;;29.48;17.58;;;103.20;2227.20;;;;;;5010689;28;20080;-70
2021/03/18 01:40:40;;;;;;;34.58;19.73;;;103.20;2227.20;;;;;;5009895;28;20053;-69
2021/03/18 01:43:06;;;;;;;42.40;21.02;;;103.20;2227.20;;;;;;5010734;28;20032;-70
2021/03/18 01:45:32;;;;;;;35.72;19.73;;;103.20;2227.20;;;;;;5010488;28;20418;-69
2021/03/18 01:47:58;;;;;;;26.80;16.60;;;103.10;2227.20;;;;;;5015182;28;20407;-70
2021/03/18 01:50:27;;;;;;;33.33;18.67;;;103.10;2227.20;;;;;;5010394;28;20117;-70
2021/03/18 01:52:54;;;;;;;28.48;16.50;;;103.10;2227.20;;;;;;5010553;28;20022;-69
2021/03/18 01:55:35;;;;;;;25.00;15.10;;;103.10;2227.20;;;;;;5010508;28;20041;-70
2021/03/18 01:58:01;;;;;;;45.60;23.08;;;103.00;2227.20;;;;;;5010557;28;20116;-70
2021/03/18 02:00:28;;;;;;;28.58;16.25;;;103.00;2227.20;;;;;;5009925;28;20022;-69
2021/03/18 02:02:58;;;;;;;43.92;23.70;;;103.00;2227.20;;;;;;5010274;28;20030;-69
2021/03/18 02:05:25;;;;;;;24.27;15.15;;;103.00;2227.20;;;;;;5010424;28;20109;-70
2021/03/18 02:07:53;;;;;;;36.65;18.98;;;103.00;2227.20;;;;;;5010058;28;20014;-69
2021/03/18 02:10:21;;;;;;;36.88;18.65;;;103.00;2227.20;;;;;;5012367;28;20056;-70
2021/03/18 02:12:46;;;;;;;48.25;22.77;;;103.00;2227.20;;;;;;5013825;28;20077;-70
2021/03/18 02:15:13;;;;;;;32.15;17.73;;;103.00;2227.20;;;;;;5013601;28;20025;-69
2021/03/18 02:18:05;;;;;;;84.45;31.92;;;103.00;2227.20;;;;;;5014047;28;20103;-70
2021/03/18 02:21:21;;;;;;;28.58;16.05;;;103.00;2227.20;;;;;;5002527;28;20083;-70
2021/03/18 02:24:01;;;;;;;32.25;16.80;;;103.00;2227.20;;;;;;4996344;28;20026;-69
2021/03/18 02:27:05;;;;;;;24.95;14.57;;;102.90;2227.20;;;;;;5013814;28;20120;-71
2021/03/18 02:29:36;;;;;;;30.77;16.67;;;102.90;2227.20;;;;;;5002114;28;20171;-69
2021/03/18 02:32:21;;;;;;;30.83;17.23;;;103.00;2227.20;;;;;;5013403;28;20079;-69
2021/03/18 02:35:05;;;;;;;25.65;14.57;;;103.00;2227.20;;;;;;5013650;28;20025;-71
2021/03/18 02:37:32;;;;;;;31.00;16.35;;;103.00;2227.20;;;;;;5013199;28;20048;-70
2021/03/18 02:40:04;;;;;;;33.17;16.95;;;103.00;2227.20;;;;;;5012787;28;20490;-70
2021/03/18 02:42:33;;;;;;;23.58;14.27;;;103.00;2227.20;;;;;;5013296;28;20022;-70
2021/03/18 02:45:01;;;;;;;19.90;12.52;;;103.00;2227.20;;;;;;5013561;28;20028;-71
2021/03/18 02:47:30;;;;;;;18.63;12.00;;;103.00;2227.20;;;;;;5015258;28;20014;-69
2021/03/18 02:49:58;;;;;;;18.38;11.70;;;103.00;2227.20;;;;;;5012977;28;20021;-70
2021/03/18 02:52:25;;;;;;;25.58;14.65;;;103.00;2227.20;;;;;;5013148;28;20053;-70
2021/03/18 02:54:56;;;;;;;17.27;11.63;;;103.10;2227.20;;;;;;5013096;28;20100;-69
2021/03/18 02:57:24;;;;;;;19.92;11.27;;;103.00;2227.20;;;;;;5013232;28;20033;-69
2021/03/18 02:59:51;;;;;;;21.35;12.30;;;103.00;2227.20;;;;;;5012658;28;20033;-70
2021/03/18 03:02:28;;;;;;;21.00;12.63;;;103.00;2227.20;;;;;;5013393;28;20380;-69
2021/03/18 03:04:56;;;;;;;17.70;11.35;;;103.00;2227.20;;;;;;5013050;28;20123;-69
2021/03/18 03:07:25;;;;;;;17.35;11.00;;;103.00;2227.20;;;;;;5013080;28;20097;-75
2021/03/18 03:09:52;;;;;;;17.70;11.50;;;103.00;2227.20;;;;;;5012216;28;20106;-70
2021/03/18 03:12:22;;;;;;;18.88;11.50;;;103.00;2227.20;;;;;;5012912;28;20022;-69
2021/03/18 03:14:49;;;;;;;20.08;11.43;;;103.00;2227.20;;;;;;5012540;28;20546;-79
2021/03/18 03:17:18;;;;;;;20.02;11.63;;;103.00;2227.20;;;;;;5012666;28;20033;-71
2021/03/18 03:19:45;;;;;;;17.42;11.48;;;103.00;2227.20;;;;;;5012293;28;20068;-73
2021/03/18 03:22:11;;;;;;;18.73;11.45;;;103.00;2227.20;;;;;;5012504;28;20359;-78
2021/03/18 03:24:38;;;;;;;17.13;11.32;;;103.00;2227.20;;;;;;5012762;28;20041;-71
2021/03/18 03:27:07;;;;;;;19.17;11.80;;;103.00;2227.20;;;;;;5013559;28;20498;-76
2021/03/18 03:29:34;;;;;;;16.13;11.15;;;103.00;2227.20;;;;;;5032281;28;20043;-70
2021/03/18 03:32:03;;;;;;;18.30;11.82;;;103.00;2227.20;;;;;;5032228;28;20100;-69
2021/03/18 03:34:29;;;;;;;19.42;12.02;;;103.00;2227.20;;;;;;5031869;28;20029;-70
2021/03/18 03:36:55;;;;;;;18.92;12.30;;;103.00;2227.20;;;;;;5032046;28;20032;-70
2021/03/18 03:39:21;;;;;;;18.40;11.75;;;103.00;2227.20;;;;;;5026123;28;20469;-70
2021/03/18 03:41:47;;;;;;;19.83;12.00;;;103.00;2227.20;;;;;;5032425;28;20668;-69
2021/03/18 03:44:13;;;;;;;17.33;11.45;;;103.00;2227.20;;;;;;5031764;28;20049;-73
2021/03/18 03:46:39;;;;;;;18.67;12.05;;;103.00;2227.20;;;;;;5031963;28;20025;-72
2021/03/18 03:49:06;;;;;;;19.63;13.10;;;103.00;2227.20;;;;;;5031516;28;20034;-69
2021/03/18 03:52:00;;;;;;;19.67;13.30;;;103.00;2227.20;;;;;;5031618;28;20033;-69
2021/03/18 03:54:29;;;;;;;17.80;12.40;;;103.00;2227.20;;;;;;5031772;28;20056;-69
2021/03/18 03:57:14;;;;;;;18.60;12.40;;;103.00;2227.20;;;;;;5020509;28;20023;-69
2021/03/18 03:59:43;;;;;;;18.45;11.82;;;103.00;2227.20;;;;;;5011421;28;20022;-70
2021/03/18 04:02:10;;;;;;;20.38;12.75;;;103.00;2227.20;;;;;;5023675;28;20402;-69
2021/03/18 04:04:46;;;;;;;21.08;13.15;;;103.00;2227.20;;;;;;5031521;28;20025;-69
2021/03/18 04:07:19;;;;;;;19.17;12.90;;;103.00;2227.20;;;;;;5030140;28;20438;-69
2021/03/18 04:09:46;;;;;;;25.42;16.17;;;103.00;2227.20;;;;;;5031147;28;20018;-70
2021/03/18 04:12:15;;;;;;;27.50;16.98;;;103.00;2227.20;;;;;;5031515;28;20021;-69
2021/03/18 04:14:46;;;;;;;22.17;14.50;;;103.00;2227.20;;;;;;5031470;28;20049;-69
2021/03/18 04:17:12;;;;;;;22.48;14.82;;;103.00;2227.20;;;;;;5031041;28;20022;-69
2021/03/18 04:19:49;;;;;;;23.20;13.88;;;103.00;2227.20;;;;;;5030980;28;20026;-70
2021/03/18 04:22:15;;;;;;;24.35;14.95;;;102.90;2227.20;;;;;;5031320;28;20087;-73
2021/03/18 04:24:41;;;;;;;24.45;15.13;;;102.90;2227.20;;;;;;5031219;28;20052;-73
2021/03/18 04:27:07;;;;;;;24.10;15.32;;;103.00;2227.20;;;;;;5030021;28;20525;-72
2021/03/18 04:29:34;;;;;;;26.48;16.30;;;103.00;2227.20;;;;;;5031216;28;20025;-70
2021/03/18 04:32:01;;;;;;;25.40;15.77;;;102.90;2227.20;;;;;;5030873;28;20079;-69
2021/03/18 04:34:28;;;;;;;24.30;15.38;;;103.00;2227.20;;;;;;5031333;28;20476;-70
2021/03/18 04:36:56;;;;;;;23.23;14.95;;;102.90;2227.20;;;;;;5030882;28;20064;-69
2021/03/18 04:39:22;;;;;;;27.05;17.77;;;102.90;2227.20;;;;;;5030578;28;20103;-70
2021/03/18 04:41:48;;;;;;;26.90;17.48;;;103.00;2227.20;;;;;;5029574;28;20409;-70
2021/03/18 04:44:15;;;;;;;27.88;17.60;;;103.00;2227.20;;;;;;5031132;28;20022;-69
2021/03/18 04:46:44;;;;;;;28.77;17.48;;;102.90;2227.20;;;;;;5031291;28;20025;-70
2021/03/18 04:49:11;;;;;;;25.85;16.77;;;102.90;2227.20;;;;;;5030385;28;20021;-70
2021/03/18 04:51:36;;;;;;;24.35;15.85;;;102.90;2227.20;;;;;;5031200;28;20029;-69
2021/03/18 04:54:03;;;;;;;25.13;15.90;;;102.90;2227.20;;;;;;5030809;28;20121;-72
2021/03/18 04:56:30;;;;;;;25.77;16.38;;;102.90;2227.20;;;;;;5030595;28;20029;-70
2021/03/18 04:58:58;;;;;;;23.80;15.35;;;102.90;2227.20;;;;;;5030632;28;20478;-70
2021/03/18 05:01:27;;;;;;;24.75;16.27;;;102.90;2227.20;;;;;;5030706;28;20033;-71
2021/03/18 05:03:54;;;;;;;27.13;16.75;;;102.80;2227.20;;;;;;5030844;28;20022;-70
2021/03/18 05:06:25;;;;;;;25.00;16.00;;;102.80;2227.20;;;;;;5030931;28;20442;-71
2021/03/18 05:08:52;;;;;;;23.80;15.85;;;102.80;2227.20;;;;;;5030267;28;20026;-70
2021/03/18 05:11:20;;;;;;;25.63;16.13;;;102.80;2227.20;;;;;;5030808;28;20017;-69
2021/03/18 05:13:47;;;;;;;24.90;16.08;;;102.80;2227.20;;;;;;5030900;28;20025;-70
2021/03/18 05:16:14;;;;;;;24.60;15.32;;;102.80;2227.20;;;;;;5030490;28;20108;-71
2021/03/18 05:18:40;;;;;;;24.98;15.40;;;102.80;2227.20;;;;;;5030444;28;20029;-69
2021/03/18 05:21:07;;;;;;;27.42;16.20;;;102.70;2227.20;;;;;;5030418;28;20057;-69
2021/03/18 05:23:33;;;;;;;24.38;15.43;;;102.80;2227.20;;;;;;5030783;28;20363;-69
2021/03/18 05:26:00;;;;;;;24.58;15.73;;;102.80;2227.20;;;;;;5030454;28;20083;-69
2021/03/18 05:28:27;;;;;;;23.25;14.55;;;102.80;2227.20;;;;;;5030483;28;20023;-70
2021/03/18 05:30:53;;;;;;;24.02;15.35;;;102.80;2227.20;;;;;;5030453;28;20029;-72
2021/03/18 05:33:20;;;;;;;23.38;14.90;;;102.80;2227.20;;;;;;5030343;28;20029;-68
2021/03/18 05:35:45;;;;;;;21.33;14.40;;;102.70;2227.20;;;;;;5030524;28;20033;-69
2021/03/18 05:38:13;;;;;;;21.40;12.95;;;102.70;2227.20;;;;;;5030098;28;20026;-69
2021/03/18 05:40:43;;;;;;;19.85;12.48;;;102.70;2227.20;;;;;;5029873;28;20054;-69
2021/03/18 05:43:09;;;;;;;20.10;13.32;;;102.70;2227.20;;;;;;5030192;28;20029;-70
2021/03/18 05:45:35;;;;;;;20.05;12.73;;;102.70;2227.20;;;;;;5032981;28;20029;-70
2021/03/18 05:48:02;;;;;;;18.52;11.70;;;102.80;2227.20;;;;;;5034162;28;20049;-73
2021/03/18 05:50:28;;;;;;;18.75;11.70;;;102.80;2227.20;;;;;;5033650;28;20495;-72
2021/03/18 05:52:58;;;;;;;15.75;11.07;;;102.80;2227.20;;;;;;5034144;28;20030;-69
2021/03/18 05:55:25;;;;;;;13.75;9.80;;;102.70;2227.20;;;;;;5034001;28;20500;-69
2021/03/18 05:57:51;;;;;;;17.08;10.18;;;102.70;2227.20;;;;;;5034134;28;20393;-69
2021/03/18 06:00:18;;;;;;;14.07;9.95;;;102.70;2227.20;;;;;;5033604;28;20027;-70
2021/03/18 06:02:44;;;;;;;15.65;9.60;;;102.60;2227.20;;;;;;5033806;28;20478;-69
2021/03/18 06:05:12;;;;;;;14.35;9.85;;;102.60;2227.20;;;;;;5033739;28;20039;-69
2021/03/18 06:07:41;;;;;;;15.48;10.40;;;102.60;2227.20;;;;;;5033687;28;20009;-69
2021/03/18 06:10:09;;;;;;;13.77;9.25;;;102.60;2227.20;;;;;;5033587;28;20125;-69
2021/03/18 06:12:40;;;;;;;14.18;9.65;;;102.60;2227.20;;;;;;5033935;28;20368;-69
2021/03/18 06:15:08;;;;;;;13.93;9.13;;;102.60;2227.20;;;;;;5033747;28;20021;-70
2021/03/18 06:17:35;;;;;;;14.73;9.68;;;102.60;2227.20;;;;;;5033503;28;20028;-69
2021/03/18 06:20:01;;;;;;;16.20;10.18;;;102.60;2227.20;;;;;;5033547;28;20056;-69
2021/03/18 06:22:36;;;;;;;14.43;9.90;;;102.60;2227.20;;;;;;5033511;28;20112;-69
2021/03/18 06:25:04;;;;;;;16.58;10.55;;;102.60;2227.20;;;;;;5008516;28;20047;-69
2021/03/18 06:27:30;;;;;;;16.58;10.82;;;102.60;2227.20;;;;;;5033587;28;20025;-69
2021/03/18 06:29:56;;;;;;;17.30;11.35;;;102.70;2227.20;;;;;;5033232;28;20120;-69
2021/03/18 06:32:24;;;;;;;17.95;11.20;;;102.70;2227.20;;;;;;5033208;28;20022;-71
2021/03/18 06:34:55;;;;;;;16.35;11.07;;;102.70;2227.20;;;;;;5033221;28;20033;-70
2021/03/18 06:37:29;;;;;;;16.20;11.45;;;102.80;2227.20;;;;;;5033265;28;20037;-72
2021/03/18 06:39:56;;;;;;;18.00;11.57;;;102.90;2227.20;;;;;;5032826;28;20034;-70
2021/03/18 06:42:21;;;;;;;18.15;12.20;;;102.90;2227.20;;;;;;5033139;28;20053;-69
2021/03/18 06:44:47;;;;;;;18.27;11.63;;;102.90;2227.20;;;;;;5033335;28;20053;-70
2021/03/18 06:47:13;;;;;;;16.52;11.27;;;103.00;2227.20;;;;;;5032842;28;20136;-70
2021/03/18 06:49:39;;;;;;;18.02;11.52;;;103.10;2227.20;;;;;;5032738;28;20029;-70
2021/03/18 06:52:05;;;;;;;17.05;11.52;;;103.20;2227.20;;;;;;5032919;28;20034;-70
2021/03/18 06:54:42;;;;;;;16.45;11.40;;;103.30;2227.20;;;;;;5031503;28;20029;-69
2021/03/18 06:57:09;;;;;;;16.80;11.48;;;128.10;2252.80;;;;;;5032406;28;20037;-70
2021/03/18 06:59:37;;;;;;;17.52;11.13;;;128.10;2252.80;;;;;;5032589;28;20052;-74
2021/03/18 07:02:14;;;;;;;17.08;11.40;;;128.20;2252.80;;;;;;5032746;28;20061;-71
2021/03/18 07:04:42;;;;;;;27.17;13.25;;;128.20;2252.80;;;;;;5008575;28;20025;-69
2021/03/18 07:07:10;;;;;;;22.02;12.27;;;128.30;2252.80;;;;;;5032833;28;20034;-70
2021/03/18 07:09:37;;;;;;;18.73;12.32;;;128.40;2252.80;;;;;;5032569;28;20389;-70
2021/03/18 07:12:06;;;;;;;20.38;12.52;;;128.40;2252.80;;;;;;5032715;28;20021;-69
2021/03/18 07:14:37;;;;;;;28.17;12.57;;;128.50;2252.80;;;;;;5032585;28;20029;-70
2021/03/18 07:17:04;;;;;;;19.23;12.40;;;128.60;2252.80;;;;;;5032583;28;20044;-70
2021/03/18 07:19:30;;;;;;;19.70;12.43;;;128.70;2252.80;;;;;;5031736;28;20104;-71
2021/03/18 07:21:57;;;;;;;20.85;13.13;;;128.70;2252.80;;;;;;5032665;28;20022;-70
2021/03/18 07:24:27;;;;;;;21.02;12.93;;;128.90;2252.80;;;;;;5032254;28;20513;-70
2021/03/18 07:26:55;;;;;;;19.77;12.43;;;128.90;2252.80;;;;;;5032473;28;20021;-70
2021/03/18 07:29:24;;;;;;;18.23;11.93;;;128.80;2252.80;;;;;;5031668;28;20017;-70
2021/03/18 07:31:51;;;;;;;34.10;18.60;;;128.70;2252.80;;;;;;5032107;28;20103;-70
2021/03/18 07:34:18;;;;;;;28.13;17.15;;;128.70;2252.80;;;;;;5032218;28;20123;-70
2021/03/18 07:36:45;;;;;;;31.05;18.50;;;128.50;2252.80;;;;;;5032176;28;20436;-70
2021/03/18 07:39:13;;;;;;;29.80;17.23;;;128.40;2252.80;;;;;;5031487;28;20045;-69
2021/03/18 07:41:39;;;;;;;26.90;15.70;;;128.40;2252.80;;;;;;5032220;28;20122;-69
2021/03/18 07:44:06;;;;;;;24.33;14.52;;;128.40;2252.80;;;;;;5032115;28;20013;-70
2021/03/18 07:46:35;;;;;;;26.02;16.45;;;128.30;2252.80;;;;;;5031964;28;20493;-70
2021/03/18 07:49:09;;;;;;;21.63;14.20;;;128.40;2252.80;;;;;;5031404;28;20026;-70
2021/03/18 07:51:37;;;;;;;17.98;12.63;;;128.40;2252.80;;;;;;5032299;28;20394;-70
2021/03/18 07:54:04;;;;;;;19.02;12.48;;;128.50;2252.80;;;;;;5031556;28;20018;-70
2021/03/18 07:56:30;;;;;;;19.75;12.48;;;128.50;2252.80;;;;;;5031746;28;20060;-70
2021/03/18 07:58:55;;;;;;;26.15;16.08;;;128.50;2252.80;;;;;;5031327;28;20029;-71
2021/03/18 08:01:30;;;;;;;21.05;14.60;;;128.70;2252.80;;;;;;5031716;28;20029;-70
2021/03/18 08:04:01;;;;;;;16.95;11.88;;;128.80;2252.80;;;;;;5031473;28;20482;-70
2021/03/18 08:06:42;;;;;;;22.60;14.20;;;128.90;2252.80;;;;;;5031412;28;20022;-70
2021/03/18 08:09:14;;;;;;;20.15;13.98;;;153.70;2252.80;;;;;;5030694;28;20414;-69
2021/03/18 08:11:42;;;;;;;17.27;12.27;;;153.80;2252.80;;;;;;5005254;28;20101;-70
2021/03/18 08:14:11;;;;;;;18.92;12.93;;;153.80;2252.80;;;;;;5011328;28;20570;-70
2021/03/18 08:16:38;;;;;;;17.63;12.40;;;153.90;2252.80;;;;;;5011764;28;20378;-70
2021/03/18 08:19:06;;;;;;;15.48;10.98;;;153.90;2252.80;;;;;;5011295;28;20021;-69
2021/03/18 08:21:35;;;;;;;16.52;11.10;;;154.00;2252.80;;;;;;5006523;28;20526;-70
2021/03/18 08:24:02;;;;;;;14.38;10.02;;;154.10;2252.80;;;;;;5011387;28;20445;-70
2021/03/18 08:26:52;;;;;;;13.18;8.70;;;154.20;2252.80;;;;;;5011227;28;20478;-70
2021/03/18 08:29:37;;;;;;;14.57;9.38;;;154.40;2252.80;;;;;;5011112;28;20029;-70
2021/03/18 08:32:09;;;;;;;13.45;8.75;;;154.50;2252.80;;;;;;5011320;28;20482;-70
2021/03/18 08:35:00;;;;;;;11.07;7.72;;;179.50;2252.80;;;;;;5011233;28;20025;-71
2021/03/18 08:37:33;;;;;;;;;;;179.90;2252.80;;;;;;5017465;28;20027;-69
2021/03/18 08:40:01;;;;;;;11.13;7.95;;;204.90;2252.80;;;;;;5005008;28;20016;-70
2021/03/18 08:42:30;;;;;;;11.55;7.93;;;205.10;2176.00;;;;;;5011533;28;20030;-69
2021/03/18 08:44:57;;;;;;;12.18;7.95;;;205.00;2176.00;;;;;;5011338;28;20119;-70
2021/03/18 08:47:36;;;;;;;18.95;10.05;;;180.10;2201.60;;;;;;5014936;28;20060;-70
2021/03/18 08:50:04;;;;;;;14.05;8.27;;;179.90;2227.20;;;;;;4992633;28;20482;-70
2021/03/18 08:52:42;;;;;;;11.63;8.00;;;179.80;2252.80;;;;;;4997812;28;20078;-70
2021/03/18 08:55:12;;;;;;;11.15;8.07;;;179.80;2252.80;;;;;;5010982;28;20038;-70
2021/03/18 08:57:39;;;;;;;;;;;179.60;2252.80;;;;;;5007036;28;20033;-70
2021/03/18 09:00:17;;;;;;;17.13;9.85;;;179.80;2252.80;;;;;;5005066;28;20066;-70
2021/03/18 09:02:44;;;;;;;13.77;9.38;;;179.90;2252.80;;;;;;5010396;28;20034;-70
2021/03/18 09:05:17;;;;;;;16.83;10.88;;;179.70;2150.40;;;;;;5010124;28;20049;-70
2021/03/18 09:07:44;;;;;;;13.95;9.10;;;179.90;2176.00;;;;;;5011092;28;20382;-70
2021/03/18 09:10:16;;;;;;;17.02;12.15;;;180.10;2150.40;;;;;;5020132;28;20032;-70
2021/03/18 09:13:06;;;;;;;15.02;10.70;;;204.90;2124.80;;;;;;4994954;28;20030;-69
2021/03/18 09:15:36;;;;;;;14.27;9.00;;;204.80;2124.80;;;;;;4989566;28;20121;-69
2021/03/18 09:18:22;;;;;;;16.40;11.20;;;179.90;2150.40;;;;;;4993360;28;20025;-69
2021/03/18 09:21:12;;;;;;;15.02;10.02;;;179.70;2201.60;;;;;;4995544;28;20054;-70
2021/03/18 09:23:41;;;;;;;17.05;10.35;;;179.50;2227.20;;;;;;5005081;28;20034;-70
2021/03/18 09:26:10;;;;;;;15.75;11.32;;;179.20;2252.80;;;;;;5007254;28;20033;-69
2021/03/18 09:28:41;;;;;;;19.52;13.20;;;154.40;2252.80;;;;;;5011420;28;20068;-70
2021/03/18 09:31:08;;;;;;;26.80;16.33;;;154.00;2252.80;;;;;;5013888;28;20026;-69
2021/03/18 09:33:36;;;;;;;35.10;19.67;;;154.00;2252.80;;;;;;5014356;28;20364;-70
2021/03/18 09:36:14;;;;;;;43.05;22.95;;;153.80;2252.80;;;;;;5024113;28;20025;-70
2021/03/18 09:38:41;;;;;;;19.33;12.77;;;153.90;2252.80;;;;;;5001467;28;20084;-70
2021/03/18 09:41:07;;;;;;;21.13;13.73;;;153.90;2252.80;;;;;;4996552;28;20084;-70
2021/03/18 09:43:33;;;;;;;22.63;14.93;;;153.90;2252.80;;;;;;5006088;28;20026;-70
2021/03/18 09:46:08;;;;;;;22.48;14.68;;;153.90;2252.80;;;;;;5014551;28;20033;-69
2021/03/18 09:48:39;;;;;;;23.55;14.95;;;153.80;2252.80;;;;;;5000226;28;20084;-71
2021/03/18 09:51:16;;;;;;;22.60;14.77;;;154.00;2252.80;;;;;;4999121;28;20022;-71
2021/03/18 09:53:44;;;;;;;23.05;14.80;;;154.20;2252.80;;;;;;5007628;28;20034;-69
2021/03/18 09:56:15;;;;;;;26.20;16.80;;;179.40;2252.80;;;;;;5001272;28;20113;-69
2021/03/18 09:58:42;;;;;;;21.08;13.63;;;205.50;2176.00;;;;;;5006713;28;20390;-71
2021/03/18 10:01:10;;;;;;;20.13;13.18;;;231.30;1971.20;;;;;;5003251;28;20033;-71
2021/03/18 10:03:36;;;;;;;19.95;12.73;;;231.20;1945.60;;;;;;5006886;28;20629;-71
2021/03/18 10:06:11;;;;;;;21.50;14.07;;;231.20;1945.60;;;;;;4999053;28;20025;-70
2021/03/18 10:08:37;;;;;;;22.63;15.98;;;307.60;1792.00;;;;;;4995720;28;20097;-70
2021/03/18 10:11:14;;;;;;;21.92;15.93;;;409.90;1510.40;;;;;;4997204;28;20203;-70
2021/03/18 10:13:41;;;;;;;23.40;16.35;;;410.50;1433.60;;;;;;5006297;28;20022;-70
2021/03/18 10:16:08;;;;;;;23.42;16.15;;;359.00;1484.80;;;;;;4999512;28;20026;-69
2021/03/18 10:18:35;;;;;;;22.42;16.05;;;359.10;1484.80;;;;;;4998024;28;20156;-70
2021/03/18 10:21:03;;;;;;;23.15;16.65;;;358.70;1536.00;;;;;;5006692;28;20470;-69
2021/03/18 10:23:29;;;;;;;22.02;15.98;;;358.80;1510.40;;;;;;5011318;28;20042;-70
2021/03/18 10:25:55;;;;;;;20.75;15.70;;;359.10;1484.80;;;;;;5013376;28;20032;-69
2021/03/18 10:28:22;;;;;;;21.15;16.10;;;435.60;1331.20;;;;;;5013833;28;20025;-69
2021/03/18 10:30:50;;;;;;;19.58;14.82;;;486.40;1254.40;;;;;;5004138;28;20097;-70
2021/03/18 10:33:24;;;;;;;19.52;14.43;;;435.40;1305.60;;;;;;5003277;28;20395;-72
2021/03/18 10:35:53;;;;;;;20.80;15.07;;;410.40;1356.80;;;;;;4995978;28;20030;-73
2021/03/18 10:38:29;;;;;;;22.38;16.60;;;384.00;1408.00;;;;;;5007758;28;20514;-72
2021/03/18 10:40:55;;;;;;;21.25;14.50;;;358.40;1484.80;;;;;;4999584;28;20058;-73
2021/03/18 10:43:23;;;;;;;21.65;15.75;;;333.30;1536.00;;;;;;4997640;28;20033;-74
2021/03/18 10:45:50;;;;;;;19.63;14.10;;;308.00;1587.20;;;;;;5011815;28;20033;-72
2021/03/18 10:48:21;;;;;;;18.48;13.57;;;282.40;1587.20;;;;;;5011707;28;20057;-71
2021/03/18 10:50:48;;;;;;;17.25;12.32;;;281.80;1664.00;;;;;;5009374;28;20045;-75
2021/03/18 10:53:15;;;;;;;18.00;12.30;;;256.50;1664.00;;;;;;5012793;28;20030;-72
2021/03/18 10:55:44;;;;;;;16.58;11.65;;;256.10;1664.00;;;;;;5005100;28;20040;-73
2021/03/18 10:58:17;;;;;;;21.65;14.25;;;231.10;1715.20;;;;;;5008285;28;20029;-72
2021/03/18 11:00:44;;;;;;;18.23;13.13;;;230.90;1792.00;;;;;;5009246;28;20359;-73
2021/03/18 11:03:15;;;;;;;17.15;12.23;;;230.70;1817.60;;;;;;5003704;28;20026;-73
2021/03/18 11:05:50;;;;;;;22.45;15.00;;;231.00;1766.40;;;;;;4996169;28;20123;-72
2021/03/18 11:08:24;;;;;;;19.60;13.40;;;256.30;1715.20;;;;;;4997852;28;20022;-73
2021/03/18 11:10:51;;;;;;;20.35;13.80;;;256.30;1689.60;;;;;;5004523;28;20022;-73
2021/03/18 11:13:25;;;;;;;15.75;11.65;;;256.10;1740.80;;;;;;5000916;28;20117;-78
2021/03/18 11:15:55;;;;;;;18.42;13.45;;;231.20;1740.80;;;;;;4997949;28;20030;-77
2021/03/18 11:18:57;;;;;;;19.00;13.52;;;231.20;1766.40;;;;;;5010182;28;20545;-73
2021/03/18 11:21:23;;;;;;;17.50;12.90;;;281.80;1664.00;;;;;;5008615;28;20054;-74
2021/03/18 11:23:50;;;;;;;21.02;15.35;;;282.50;1612.80;;;;;;5011934;28;20109;-72
2021/03/18 11:26:19;;;;;;;20.17;14.48;;;282.10;1638.40;;;;;;5011725;28;20030;-73
2021/03/18 11:29:10;;;;;;;21.25;14.90;;;256.60;1664.00;;;;;;5000562;28;20073;-73
2021/03/18 11:31:37;;;;;;;;;;;231.10;1740.80;;;;;;5001896;28;20057;-72
2021/03/18 11:34:24;;;;;;;24.90;15.68;;;230.70;1792.00;;;;;;5010760;28;19933;-73
2021/03/18 11:36:57;;;;;;;17.40;12.88;;;205.60;1843.20;;;;;;4997616;28;20439;-72
2021/03/18 11:39:23;;;;;;;22.35;14.88;;;205.10;1868.80;;;;;;4995986;28;20043;-71
2021/03/18 11:41:54;;;;;;;22.88;15.32;;;180.10;1920.00;;;;;;4998626;28;20085;-72
2021/03/18 11:44:21;;;;;;;19.58;13.13;;;179.90;1945.60;;;;;;5001393;28;20022;-72
2021/03/18 11:46:47;;;;;;;31.75;19.73;;;179.80;1945.60;;;;;;5001620;28;20037;-74
2021/03/18 11:49:12;;;;;;;23.38;15.77;;;179.80;1971.20;;;;;;5003054;28;20098;-72
2021/03/18 11:51:39;;;;;;;22.83;15.10;;;179.80;1996.80;;;;;;4996317;28;20494;-73
2021/03/18 11:54:06;;;;;;;24.38;16.27;;;179.70;1996.80;;;;;;5001587;28;20403;-74
2021/03/18 11:56:31;;;;;;;28.45;17.70;;;179.70;2022.40;;;;;;4996527;28;20022;-72
2021/03/18 11:58:57;;;;;;;20.90;14.00;;;179.90;2022.40;;;;;;4992247;28;20105;-73
2021/03/18 12:01:23;;;;;;;24.90;15.70;;;180.00;2022.40;;;;;;4994132;28;20034;-72
2021/03/18 12:03:50;;;;;;;18.23;11.82;;;180.10;2022.40;;;;;;4994537;28;20037;-72
2021/03/18 12:06:16;;;;;;;17.63;11.73;;;180.00;1971.20;;;;;;5007448;28;20064;-72
2021/03/18 12:08:42;;;;;;;18.40;12.20;;;180.00;1996.80;;;;;;4992816;28;20700;-73
2021/03/18 12:11:08;;;;;;;18.08;12.25;;;179.90;1996.80;;;;;;4993703;28;20065;-75
2021/03/18 12:13:34;;;;;;;16.25;11.45;;;179.80;1996.80;;;;;;4992729;28;20019;-72